createdAt,value
2022-12-06T00:01:29.274Z,4.79
2022-12-06T00:04:31.110Z,4.51
2022-12-06T00:07:32.087Z,4.56
2022-12-06T00:10:12.805Z,4.52
2022-12-06T00:12:39.802Z,4.70
2022-12-06T00:15:07.391Z,4.64
2022-12-06T00:17:37.641Z,3.76
2022-12-06T00:20:09.877Z,4.69
2022-12-06T00:23:00.089Z,4.44
2022-12-06T00:25:41.273Z,4.21
2022-12-06T00:28:09.372Z,3.89
2022-12-06T00:30:36.400Z,4.09
2022-12-06T00:33:04.135Z,3.68
2022-12-06T00:35:31.284Z,4.12
2022-12-06T00:38:18.143Z,3.21
2022-12-06T00:41:22.085Z,4.31
2022-12-06T00:44:02.747Z,3.95
2022-12-06T00:46:32.430Z,3.91
2022-12-06T00:49:03.722Z,4.20
2022-12-06T00:51:52.184Z,4.14
2022-12-06T00:54:33.394Z,3.37
2022-12-06T00:57:01.336Z,4.22
2022-12-06T00:59:28.686Z,4.19
2022-12-06T01:01:55.658Z,3.39
2022-12-06T01:04:24.010Z,3.91
2022-12-06T01:06:51.535Z,3.70
2022-12-06T01:09:18.830Z,3.72
2022-12-06T01:11:45.760Z,3.72
2022-12-06T01:14:12.856Z,3.72
2022-12-06T01:16:39.863Z,3.85
2022-12-06T01:19:07.282Z,2.91
2022-12-06T01:21:34.552Z,3.68
2022-12-06T01:24:01.573Z,3.45
2022-12-06T01:26:31.727Z,2.63
2022-12-06T01:28:59.898Z,3.55
2022-12-06T01:31:48.137Z,2.88
2022-12-06T01:34:50.768Z,3.34
2022-12-06T01:37:51.234Z,2.94
2022-12-06T01:40:47.214Z,3.78
2022-12-06T01:43:42.409Z,3.61
2022-12-06T01:46:31.209Z,3.76
2022-12-06T01:49:05.886Z,3.59
2022-12-06T01:51:34.652Z,3.74
2022-12-06T01:54:03.956Z,3.31
2022-12-06T01:56:32.597Z,3.76
2022-12-06T01:59:01.414Z,3.14
2022-12-06T02:01:30.236Z,3.80
2022-12-06T02:03:59.804Z,3.46
2022-12-06T02:06:29.406Z,3.57
2022-12-06T02:08:59.910Z,2.67
2022-12-06T02:11:30.778Z,2.95
2022-12-06T02:14:05.578Z,3.10
2022-12-06T02:16:57.384Z,3.32
2022-12-06T02:19:58.236Z,3.25
2022-12-06T02:22:46.557Z,3.27
2022-12-06T02:25:25.593Z,3.35
2022-12-06T02:28:40.146Z,3.38
2022-12-06T02:31:50.696Z,2.88
2022-12-06T02:34:46.222Z,3.22
2022-12-06T02:38:12.716Z,3.10
2022-12-06T02:41:20.179Z,2.94
2022-12-06T02:44:27.148Z,3.14
2022-12-06T02:47:11.721Z,3.34
2022-12-06T02:49:49.655Z,3.30
2022-12-06T02:52:20.336Z,3.41
2022-12-06T02:54:50.279Z,3.16
2022-12-06T02:57:23.730Z,2.60
2022-12-06T02:59:53.017Z,3.50
2022-12-06T03:02:23.834Z,3.39
2022-12-06T03:05:00.814Z,2.63
2022-12-06T03:07:40.047Z,3.46
2022-12-06T03:10:15.806Z,3.56
2022-12-06T03:13:11.042Z,3.05
2022-12-06T03:16:00.555Z,3.11
2022-12-06T03:18:50.313Z,3.21
2022-12-06T03:22:04.170Z,3.24
2022-12-06T03:24:46.003Z,2.69
2022-12-06T03:27:18.010Z,2.87
2022-12-06T03:29:58.219Z,2.39
2022-12-06T03:32:30.839Z,2.49
2022-12-06T03:35:04.103Z,3.15
2022-12-06T03:38:19.186Z,2.74
2022-12-06T03:41:22.216Z,2.94
2022-12-06T03:43:59.573Z,3.13
2022-12-06T03:46:38.931Z,2.69
2022-12-06T03:49:11.610Z,3.27
2022-12-06T03:51:41.005Z,3.14
2022-12-06T03:54:08.668Z,3.33
2022-12-06T03:56:37.693Z,3.50
2022-12-06T03:59:06.225Z,2.19
2022-12-06T04:01:53.236Z,3.38
2022-12-06T04:04:54.221Z,2.98
2022-12-06T04:07:34.804Z,3.27
2022-12-06T04:10:05.261Z,3.38
2022-12-06T04:12:53.693Z,2.37
2022-12-06T04:15:22.121Z,3.06
2022-12-06T04:18:20.189Z,2.79
2022-12-06T04:21:23.029Z,2.80
2022-12-06T04:23:52.304Z,2.37
2022-12-06T04:26:22.025Z,3.03
2022-12-06T04:29:08.610Z,2.78
2022-12-06T04:31:55.330Z,3.03
2022-12-06T04:34:40.958Z,3.01
2022-12-06T04:37:47.199Z,3.29
2022-12-06T04:40:27.801Z,3.16
2022-12-06T04:43:24.404Z,2.54
2022-12-06T04:45:51.735Z,2.74
2022-12-06T04:48:18.712Z,2.65
2022-12-06T04:50:50.071Z,2.99
2022-12-06T04:53:17.753Z,3.30
2022-12-06T04:55:48.443Z,3.43
2022-12-06T04:58:15.927Z,3.65
2022-12-06T05:00:43.809Z,3.67
2022-12-06T05:03:12.314Z,3.23
2022-12-06T05:05:40.533Z,2.98
2022-12-06T05:08:07.828Z,3.10
2022-12-06T05:10:34.932Z,3.35
2022-12-06T05:13:22.218Z,2.88
2022-12-06T05:16:23.268Z,3.54
2022-12-06T05:19:04.168Z,2.78
2022-12-06T05:21:31.508Z,3.40
2022-12-06T05:23:59.616Z,3.73
2022-12-06T05:26:29.130Z,3.39
2022-12-06T05:28:59.265Z,3.13
2022-12-06T05:31:27.790Z,1.77
2022-12-06T05:33:55.247Z,1.92
2022-12-06T05:36:25.061Z,3.02
2022-12-06T05:39:12.259Z,3.34
2022-12-06T05:41:53.131Z,3.13
2022-12-06T05:44:20.109Z,2.49
2022-12-06T05:47:00.750Z,2.69
2022-12-06T05:49:41.651Z,2.64
2022-12-06T05:52:10.509Z,2.08
2022-12-06T05:54:37.503Z,2.88
2022-12-06T05:57:04.508Z,2.76
2022-12-06T05:59:31.693Z,3.02
2022-12-06T06:02:19.081Z,2.94
2022-12-06T06:04:59.792Z,2.95
2022-12-06T06:07:47.307Z,3.17
2022-12-06T06:10:27.851Z,2.69
2022-12-06T06:13:15.241Z,3.15
2022-12-06T06:16:16.308Z,2.59
2022-12-06T06:18:56.840Z,2.90
2022-12-06T06:21:23.752Z,2.91
2022-12-06T06:23:50.902Z,2.49
2022-12-06T06:26:18.744Z,3.06
2022-12-06T06:28:45.660Z,2.81
2022-12-06T06:31:12.598Z,2.39
2022-12-06T06:33:39.639Z,2.49
2022-12-06T06:36:07.014Z,2.73
2022-12-06T06:38:54.278Z,2.92
2022-12-06T06:41:55.258Z,2.42
2022-12-06T06:44:35.904Z,2.73
2022-12-06T06:47:02.824Z,2.44
2022-12-06T06:49:50.486Z,2.09
2022-12-06T06:52:36.809Z,2.63
2022-12-06T06:55:04.161Z,2.32
2022-12-06T06:57:31.101Z,2.60
2022-12-06T06:59:59.145Z,2.52
2022-12-06T07:02:47.566Z,1.93
2022-12-06T07:05:27.988Z,2.47
2022-12-06T07:07:58.892Z,1.65
2022-12-06T07:10:27.980Z,2.81
2022-12-06T07:12:55.029Z,2.29
2022-12-06T07:15:21.920Z,2.70
2022-12-06T07:17:51.505Z,2.84
2022-12-06T07:20:19.011Z,2.88
2022-12-06T07:22:46.261Z,2.78
2022-12-06T07:25:13.996Z,3.03
2022-12-06T07:27:40.964Z,3.00
2022-12-06T07:30:08.764Z,2.72
2022-12-06T07:32:37.145Z,3.28
2022-12-06T07:35:05.000Z,3.31
2022-12-06T07:37:55.400Z,3.29
2022-12-06T07:41:04.487Z,3.40
2022-12-06T07:44:04.948Z,2.85
2022-12-06T07:46:32.092Z,3.17
2022-12-06T07:48:59.413Z,2.79
2022-12-06T07:51:26.622Z,2.98
2022-12-06T07:53:54.729Z,4.08
2022-12-06T07:56:43.356Z,3.93
2022-12-06T07:59:26.195Z,3.57
2022-12-06T08:01:54.212Z,3.68
2022-12-06T08:04:22.210Z,3.53
2022-12-06T08:06:49.562Z,3.89
2022-12-06T08:09:17.980Z,3.91
2022-12-06T08:11:44.841Z,4.13
2022-12-06T08:14:32.308Z,3.72
2022-12-06T08:17:13.106Z,3.86
2022-12-06T08:19:40.564Z,3.86
2022-12-06T08:22:07.494Z,2.29
2022-12-06T08:24:35.026Z,3.80
2022-12-06T08:27:02.109Z,3.07
2022-12-06T08:29:28.997Z,4.03
2022-12-06T08:31:55.913Z,4.00
2022-12-06T08:34:23.248Z,4.38
2022-12-06T08:37:10.348Z,4.32
2022-12-06T08:40:11.381Z,4.46
2022-12-06T08:43:12.370Z,4.30
2022-12-06T08:46:13.342Z,4.48
2022-12-06T08:49:15.350Z,4.32
2022-12-06T08:52:16.527Z,4.20
2022-12-06T08:55:17.527Z,4.50
2022-12-06T08:57:57.975Z,4.49
2022-12-06T09:00:24.978Z,4.44
2022-12-06T09:02:51.912Z,4.64
2022-12-06T09:05:18.825Z,4.87
2022-12-06T09:07:45.690Z,5.07
2022-12-06T09:10:12.811Z,5.17
2022-12-06T09:12:39.842Z,3.66
2022-12-06T09:15:07.058Z,5.02
2022-12-06T09:17:33.911Z,5.09
2022-12-06T09:20:05.463Z,4.15
2022-12-06T09:22:33.163Z,5.06
2022-12-06T09:25:00.143Z,5.67
2022-12-06T09:27:30.226Z,5.55
2022-12-06T09:29:57.327Z,5.55
2022-12-06T09:32:24.758Z,5.50
2022-12-06T09:35:15.248Z,5.74
2022-12-06T09:38:16.346Z,5.30
2022-12-06T09:41:40.448Z,5.75
2022-12-06T09:44:42.207Z,5.22
2022-12-06T09:47:40.384Z,5.16
2022-12-06T09:51:05.479Z,5.09
2022-12-06T09:53:55.109Z,5.18
2022-12-06T09:56:34.059Z,4.32
2022-12-06T09:59:22.826Z,4.89
2022-12-06T10:02:11.867Z,4.83
2022-12-06T10:04:55.538Z,4.90
2022-12-06T10:07:45.254Z,5.04
2022-12-06T10:10:31.106Z,5.38
2022-12-06T10:13:08.627Z,5.64
2022-12-06T10:15:35.561Z,5.88
2022-12-06T10:18:08.491Z,6.28
2022-12-06T10:20:41.496Z,5.81
2022-12-06T10:23:30.257Z,6.03
2022-12-06T10:26:19.644Z,6.12
2022-12-06T10:29:09.175Z,6.22
2022-12-06T10:31:57.076Z,6.53
2022-12-06T10:34:44.432Z,6.05
2022-12-06T10:38:15.419Z,5.96
2022-12-06T10:41:47.408Z,5.74
2022-12-06T10:44:58.413Z,5.65
2022-12-06T10:47:59.425Z,5.65
2022-12-06T10:50:42.393Z,6.10
2022-12-06T10:53:17.249Z,5.89
2022-12-06T10:56:09.945Z,6.04
2022-12-06T10:58:58.660Z,5.75
2022-12-06T11:01:31.811Z,5.91
2022-12-06T11:04:27.406Z,5.58
2022-12-06T11:07:34.465Z,5.42
2022-12-06T11:10:22.099Z,5.65
2022-12-06T11:12:54.072Z,5.89
2022-12-06T11:15:25.527Z,6.02
2022-12-06T11:18:17.617Z,5.71
2022-12-06T11:21:23.441Z,5.65
2022-12-06T11:23:56.607Z,6.24
2022-12-06T11:26:34.987Z,5.96
2022-12-06T11:29:06.861Z,5.79
2022-12-06T11:31:37.950Z,6.09
2022-12-06T11:34:37.401Z,6.28
2022-12-06T11:37:44.609Z,6.12
2022-12-06T11:40:43.499Z,5.98
2022-12-06T11:43:32.243Z,6.18
2022-12-06T11:45:59.233Z,5.33
2022-12-06T11:48:31.143Z,6.34
2022-12-06T11:50:58.282Z,6.02
2022-12-06T11:54:07.418Z,6.02
2022-12-06T11:57:12.423Z,6.25
2022-12-06T12:00:12.093Z,6.68
2022-12-06T12:02:44.007Z,6.85
2022-12-06T12:05:22.100Z,6.37
2022-12-06T12:08:18.613Z,6.63
2022-12-06T12:11:20.452Z,6.55
2022-12-06T12:14:04.095Z,6.90
2022-12-06T12:16:58.523Z,6.85
2022-12-06T12:20:05.291Z,6.34
2022-12-06T12:22:39.036Z,6.55
2022-12-06T12:25:24.078Z,6.75
2022-12-06T12:27:59.170Z,6.63
2022-12-06T12:30:34.560Z,7.05
2022-12-06T12:33:14.588Z,6.84
2022-12-06T12:35:44.945Z,6.90
2022-12-06T12:38:40.487Z,6.52
2022-12-06T12:41:47.784Z,6.55
2022-12-06T12:44:52.543Z,6.66
2022-12-06T12:47:53.498Z,7.06
2022-12-06T12:50:34.007Z,6.77
2022-12-06T12:53:00.895Z,7.05
2022-12-06T12:55:30.347Z,6.53
2022-12-06T12:58:24.484Z,7.17
2022-12-06T13:01:27.727Z,7.43
2022-12-06T13:04:07.311Z,7.33
2022-12-06T13:06:37.290Z,7.38
2022-12-06T13:09:06.375Z,7.23
2022-12-06T13:11:42.915Z,7.53
2022-12-06T13:14:18.506Z,7.28
2022-12-06T13:16:48.124Z,7.40
2022-12-06T13:19:18.739Z,7.69
2022-12-06T13:21:47.147Z,7.28
2022-12-06T13:24:25.367Z,7.21
2022-12-06T13:26:57.727Z,7.46
2022-12-06T13:29:31.558Z,7.18
2022-12-06T13:32:01.903Z,7.11
2022-12-06T13:34:57.480Z,7.11
2022-12-06T13:38:05.478Z,7.09
2022-12-06T13:41:08.585Z,7.28
2022-12-06T13:43:49.684Z,7.12
2022-12-06T13:46:29.392Z,7.18
2022-12-06T13:49:24.781Z,6.96
2022-12-06T13:52:11.484Z,6.60
2022-12-06T13:55:17.260Z,7.04
2022-12-06T13:58:11.493Z,6.98
2022-12-06T14:01:12.592Z,7.06
2022-12-06T14:03:56.925Z,7.04
2022-12-06T14:06:42.532Z,7.10
2022-12-06T14:09:11.396Z,7.20
2022-12-06T14:11:40.095Z,6.97
2022-12-06T14:14:15.873Z,6.87
2022-12-06T14:17:26.766Z,7.01
2022-12-06T14:43:49.576Z,4.95
2022-12-06T14:46:33.583Z,6.44
2022-12-06T14:50:05.003Z,5.98
2022-12-06T14:53:02.590Z,5.56
2022-12-06T14:56:12.986Z,5.82
2022-12-06T14:59:04.891Z,5.77
2022-12-06T15:01:58.492Z,5.24
2022-12-06T15:04:43.430Z,5.28
2022-12-06T15:07:53.581Z,6.39
2022-12-06T15:10:40.845Z,6.41
2022-12-06T15:13:20.815Z,5.67
2022-12-06T15:16:10.055Z,5.46
2022-12-06T15:19:00.807Z,5.59
2022-12-06T15:21:35.489Z,6.24
2022-12-06T15:24:02.697Z,5.73
2022-12-06T15:26:44.196Z,6.02
2022-12-06T15:29:14.479Z,6.11
2022-12-06T15:35:19.924Z,5.26
2022-12-06T15:38:27.636Z,4.16
2022-12-06T15:41:48.866Z,4.57
2022-12-06T15:47:28.646Z,4.67
2022-12-06T15:50:14.628Z,5.05
2022-12-06T15:52:42.573Z,4.88
2022-12-06T15:55:44.280Z,4.55
2022-12-06T15:59:08.097Z,4.56
2022-12-06T16:04:55.714Z,3.56
2022-12-06T16:08:03.110Z,3.59
2022-12-06T16:13:33.930Z,2.47
2022-12-06T16:16:08.126Z,4.48
2022-12-06T16:19:45.634Z,2.55
2022-12-06T16:22:56.913Z,3.46
2022-12-06T16:25:45.896Z,2.55
2022-12-06T16:28:33.753Z,4.40
2022-12-06T16:31:45.623Z,1.95
2022-12-06T16:34:37.416Z,2.14
2022-12-06T16:37:36.711Z,2.80
2022-12-06T16:43:21.158Z,2.02
2022-12-06T16:51:56.786Z,1.67
2022-12-06T16:58:12.567Z,3.40
2022-12-06T17:01:30.875Z,1.52
2022-12-06T17:04:43.877Z,3.03
2022-12-06T17:07:47.504Z,1.70
2022-12-06T17:10:37.083Z,2.82
2022-12-06T17:17:02.294Z,2.95
2022-12-06T17:22:57.858Z,1.54
2022-12-06T17:25:45.121Z,1.93
2022-12-06T17:28:37.233Z,1.39
2022-12-06T17:31:26.238Z,1.59
2022-12-06T17:34:07.301Z,3.69
2022-12-06T17:36:59.739Z,2.45
2022-12-06T17:39:43.872Z,1.53
2022-12-06T17:42:53.805Z,3.26
2022-12-06T17:49:02.951Z,2.88
2022-12-06T17:56:48.213Z,1.73
2022-12-06T17:59:38.375Z,2.18
2022-12-06T18:02:31.917Z,3.85
2022-12-06T18:05:39.643Z,3.65
2022-12-06T18:09:05.215Z,2.70
2022-12-06T18:11:41.580Z,1.36
2022-12-06T18:20:18.188Z,0.84
2022-12-06T18:23:02.412Z,1.08
2022-12-06T18:26:13.590Z,1.15
2022-12-06T18:29:11.821Z,1.20
2022-12-06T18:31:44.398Z,3.00
2022-12-06T18:34:16.638Z,0.92
2022-12-06T18:41:22.854Z,0.70
2022-12-06T18:44:19.175Z,1.99
2022-12-06T18:46:49.884Z,3.16
2022-12-06T18:49:22.517Z,2.29
2022-12-06T18:52:11.071Z,2.26
2022-12-06T18:54:43.999Z,1.07
2022-12-06T18:57:40.787Z,1.04
2022-12-06T19:00:15.848Z,1.82
2022-12-06T19:02:55.184Z,1.34
2022-12-06T19:06:01.383Z,1.99
2022-12-06T19:08:23.546Z,1.36
2022-12-06T19:10:53.586Z,0.51
2022-12-06T19:13:21.321Z,0.50
2022-12-06T19:19:12.796Z,2.91
2022-12-06T19:22:21.521Z,1.42
2022-12-06T19:25:40.014Z,2.79
2022-12-06T19:28:26.154Z,1.46
2022-12-06T19:31:01.471Z,3.23
2022-12-06T19:34:30.886Z,2.90
2022-12-06T19:37:40.715Z,0.11
2022-12-06T19:40:22.468Z,1.56
2022-12-06T19:43:15.066Z,1.79
2022-12-06T19:45:50.056Z,1.91
2022-12-06T19:48:28.205Z,2.93
2022-12-06T19:53:44.095Z,0.85
2022-12-06T19:56:26.858Z,1.89
2022-12-06T19:59:34.758Z,2.26
2022-12-06T20:02:35.179Z,2.18
2022-12-06T20:05:16.512Z,1.18
2022-12-06T20:11:35.504Z,0.79
2022-12-06T20:14:22.868Z,0.33
2022-12-06T20:16:53.094Z,1.29
2022-12-06T20:23:55.416Z,-0.31
2022-12-06T20:26:26.916Z,-0.13
2022-12-06T20:29:14.234Z,0.78
2022-12-06T20:31:42.860Z,-0.31
2022-12-06T20:34:44.929Z,1.50
2022-12-06T20:37:51.836Z,1.99
2022-12-06T20:40:40.052Z,1.56
2022-12-06T20:43:12.054Z,-0.35
2022-12-06T20:45:39.276Z,0.53
2022-12-06T20:48:28.827Z,1.87
2022-12-06T20:51:28.204Z,-0.30
2022-12-06T20:54:07.807Z,-0.35
2022-12-06T20:56:48.756Z,0.66
2022-12-06T20:59:42.472Z,0.53
2022-12-06T21:02:15.068Z,1.70
2022-12-06T21:04:49.988Z,0.51
2022-12-06T21:07:24.656Z,0.86
2022-12-06T21:10:29.924Z,1.72
2022-12-06T21:13:06.182Z,0.30
2022-12-06T21:15:34.283Z,1.54
2022-12-06T21:18:30.129Z,0.70
2022-12-06T21:24:24.166Z,0.51
2022-12-06T21:26:55.633Z,0.96
2022-12-06T21:29:40.913Z,0.30
2022-12-06T21:32:39.657Z,0.85
2022-12-06T21:35:40.986Z,-0.43
2022-12-06T21:38:50.938Z,-0.50
2022-12-06T21:41:31.569Z,1.69
2022-12-06T21:44:22.882Z,1.40
2022-12-06T21:47:17.772Z,-0.46
2022-12-06T21:50:12.036Z,-0.45
2022-12-06T21:53:15.083Z,-0.29
2022-12-06T21:56:17.950Z,-0.61
2022-12-06T22:04:33.277Z,0.55
2022-12-06T22:07:11.076Z,-0.18
2022-12-06T22:10:04.828Z,1.23
2022-12-06T22:12:51.324Z,0.52
2022-12-06T22:15:18.531Z,0.56
2022-12-06T22:18:10.035Z,0.90
2022-12-06T22:21:10.881Z,-0.62
2022-12-06T22:24:01.869Z,-0.26
2022-12-06T22:26:41.977Z,0.37
2022-12-06T22:29:14.306Z,0.14
2022-12-06T22:31:44.491Z,0.87
2022-12-06T22:34:15.394Z,-0.47
2022-12-06T22:39:40.705Z,0.42
2022-12-06T22:43:04.758Z,1.49
2022-12-06T22:49:07.982Z,-0.40
2022-12-06T22:51:42.518Z,1.03
2022-12-06T22:54:39.409Z,0.73
2022-12-06T22:57:06.676Z,-0.22
2022-12-06T22:59:54.924Z,0.94
2022-12-06T23:02:25.402Z,-0.02
2022-12-06T23:04:55.685Z,0.84
2022-12-06T23:07:22.838Z,0.11
2022-12-06T23:09:50.563Z,1.17
2022-12-06T23:12:17.735Z,1.38
2022-12-06T23:14:50.143Z,1.37
2022-12-06T23:17:27.204Z,1.17
2022-12-06T23:19:56.912Z,0.93
2022-12-06T23:22:25.134Z,2.02
2022-12-06T23:24:56.388Z,2.10
2022-12-06T23:27:45.828Z,2.06
2022-12-06T23:30:41.330Z,-0.08
2022-12-06T23:33:29.475Z,1.28
2022-12-06T23:40:20.488Z,1.68
2022-12-06T23:42:56.550Z,1.45
2022-12-06T23:45:23.706Z,-0.13
2022-12-06T23:48:12.796Z,0.16
2022-12-06T23:51:48.992Z,1.24
2022-12-06T23:58:13.564Z,1.09
